Time;durP1;ratioP1;P1;durP2;ratioP2;P2;SDS_P1;SDS_P2;PMS_P1;PMS_P2;Temp;Humidity;BMP_temperature;BMP_pressure;BME280_temperature;BME280_humidity;BME280_pressure;Samples;Min_cycle;Max_cycle;Signal;HPM_P1;HPM_P2
2022/07/26 00:01:18;;;;;;;6.40;4.63;;;24.20;46.90;;;;;;5010688;28;20100;-75
2022/07/26 00:03:45;;;;;;;8.77;4.25;;;24.20;47.00;;;;;;5010785;28;20057;-75
2022/07/26 00:06:10;;;;;;;9.82;4.38;;;24.10;47.20;;;;;;5010772;28;20054;-75
2022/07/26 00:08:36;;;;;;;6.53;4.38;;;24.10;47.30;;;;;;5010703;28;20026;-75
2022/07/26 00:11:02;;;;;;;5.80;3.83;;;24.00;47.20;;;;;;5010696;28;20030;-75
2022/07/26 00:13:27;;;;;;;6.03;4.28;;;24.00;46.90;;;;;;5010648;28;20026;-75
2022/07/26 00:15:53;;;;;;;7.25;4.22;;;24.00;47.10;;;;;;5010587;28;20150;-75
2022/07/26 00:18:20;;;;;;;6.13;4.25;;;24.10;47.10;;;;;;5010393;28;20378;-75
2022/07/26 00:20:47;;;;;;;7.38;3.67;;;24.10;47.00;;;;;;5010459;28;20138;-75
2022/07/26 00:23:13;;;;;;;4.93;3.25;;;24.10;47.20;;;;;;5010368;28;20159;-74
2022/07/26 00:25:38;;;;;;;8.80;3.40;;;24.00;47.30;;;;;;5009096;28;20071;-75
2022/07/26 00:28:04;;;;;;;6.13;3.40;;;24.00;47.10;;;;;;5010456;28;20049;-75
2022/07/26 00:30:30;;;;;;;4.88;2.85;;;24.00;47.40;;;;;;5010470;28;20030;-75
2022/07/26 00:32:55;;;;;;;3.72;2.70;;;24.00;47.30;;;;;;5010387;28;20022;-75
2022/07/26 00:35:21;;;;;;;5.93;2.28;;;24.10;47.40;;;;;;5010594;28;20075;-75
2022/07/26 00:37:47;;;;;;;3.90;2.10;;;24.10;46.90;;;;;;5013880;28;20054;-75
2022/07/26 00:40:13;;;;;;;2.50;1.70;;;24.10;46.90;;;;;;5013877;28;20030;-76
2022/07/26 00:42:39;;;;;;;5.63;2.10;;;24.20;46.80;;;;;;5013524;28;20107;-75
2022/07/26 00:45:06;;;;;;;2.95;1.70;;;24.20;46.80;;;;;;5013914;28;20466;-75
2022/07/26 00:47:32;;;;;;;3.90;1.40;;;24.10;47.40;;;;;;5013909;28;20030;-75
2022/07/26 00:49:58;;;;;;;7.03;1.65;;;24.10;47.40;;;;;;5013779;28;20470;-75
2022/07/26 00:52:24;;;;;;;4.00;1.58;;;24.00;47.40;;;;;;5013780;28;20033;-75
2022/07/26 00:54:53;;;;;;;6.45;1.52;;;24.00;47.70;;;;;;5015620;28;20068;-76
2022/07/26 00:57:20;;;;;;;4.05;1.20;;;23.90;47.50;;;;;;5015274;28;20179;-74
2022/07/26 00:59:46;;;;;;;2.47;1.13;;;23.80;47.60;;;;;;5018347;28;20374;-75
2022/07/26 01:02:12;;;;;;;3.88;1.27;;;23.70;48.20;;;;;;5014507;28;20063;-75
2022/07/26 01:04:38;;;;;;;2.78;1.00;;;23.70;48.00;;;;;;5015558;28;20393;-75
2022/07/26 01:07:05;;;;;;;4.72;1.02;;;23.70;48.20;;;;;;5013486;28;20066;-75
2022/07/26 01:09:31;;;;;;;2.85;1.20;;;23.60;48.40;;;;;;5013509;28;20501;-75
2022/07/26 01:11:58;;;;;;;2.60;1.13;;;23.50;48.60;;;;;;5013337;28;20030;-75
2022/07/26 01:14:24;;;;;;;3.78;1.20;;;23.50;48.60;;;;;;5013523;28;20022;-75
2022/07/26 01:16:50;;;;;;;2.50;1.10;;;23.50;48.90;;;;;;5013035;28;20490;-75
2022/07/26 01:19:16;;;;;;;4.32;1.17;;;23.60;48.60;;;;;;5013177;28;20025;-74
2022/07/26 01:21:42;;;;;;;1.77;1.00;;;23.70;48.70;;;;;;5012984;28;20038;-75
2022/07/26 01:24:07;;;;;;;3.22;1.23;;;23.70;48.30;;;;;;5013146;28;20056;-75
2022/07/26 01:26:33;;;;;;;4.40;1.30;;;23.50;48.80;;;;;;5013109;28;20083;-74
2022/07/26 01:28:59;;;;;;;3.05;1.20;;;23.40;49.00;;;;;;5013104;28;20030;-75
2022/07/26 01:31:24;;;;;;;3.38;1.30;;;23.40;49.30;;;;;;5013020;28;20083;-75
2022/07/26 01:33:50;;;;;;;4.07;1.00;;;23.50;49.30;;;;;;5013026;28;20033;-75
2022/07/26 01:36:16;;;;;;;1.30;1.13;;;23.50;49.30;;;;;;5012899;28;20083;-75
2022/07/26 01:38:42;;;;;;;2.22;1.08;;;23.60;49.00;;;;;;5012804;28;20327;-75
2022/07/26 01:41:08;;;;;;;1.83;1.10;;;23.70;48.80;;;;;;5012947;28;20053;-75
2022/07/26 01:43:35;;;;;;;4.82;1.00;;;23.70;48.80;;;;;;5013266;28;20374;-75
2022/07/26 01:46:01;;;;;;;3.85;1.08;;;23.70;48.60;;;;;;5014409;28;20473;-75
2022/07/26 01:48:26;;;;;;;2.50;0.98;;;23.80;48.50;;;;;;5012680;28;20030;-75
2022/07/26 01:50:52;;;;;;;7.38;1.10;;;23.80;48.40;;;;;;5012903;28;20041;-74
2022/07/26 01:53:18;;;;;;;2.28;0.80;;;23.80;48.40;;;;;;5012621;28;20026;-75
2022/07/26 01:55:43;;;;;;;5.25;1.10;;;23.80;48.50;;;;;;5012633;28;20049;-75
2022/07/26 01:58:09;;;;;;;3.40;1.20;;;23.80;48.60;;;;;;5012540;28;20042;-75
2022/07/26 02:00:35;;;;;;;2.13;1.00;;;23.80;48.50;;;;;;5012634;28;20026;-75
2022/07/26 02:03:01;;;;;;;2.55;1.10;;;23.80;48.60;;;;;;5012526;28;20493;-75
2022/07/26 02:05:26;;;;;;;2.08;1.05;;;23.90;48.50;;;;;;5012528;28;20034;-75
2022/07/26 02:07:52;;;;;;;3.17;0.90;;;23.90;48.50;;;;;;5012468;28;20478;-75
2022/07/26 02:10:18;;;;;;;5.05;1.38;;;23.80;48.50;;;;;;5012451;28;20026;-75
2022/07/26 02:12:43;;;;;;;1.92;0.80;;;23.80;48.60;;;;;;5012515;28;20482;-75
2022/07/26 02:15:10;;;;;;;3.78;1.38;;;23.80;48.80;;;;;;5012484;28;20030;-75
2022/07/26 02:17:36;;;;;;;4.50;1.30;;;23.50;49.10;;;;;;5012310;28;20105;-75
2022/07/26 02:20:03;;;;;;;3.13;1.00;;;23.40;49.70;;;;;;5012332;28;20080;-75
2022/07/26 02:22:28;;;;;;;4.00;1.17;;;23.30;50.10;;;;;;5012120;28;20171;-75
2022/07/26 02:24:54;;;;;;;4.72;1.20;;;23.30;50.30;;;;;;5012414;28;20055;-75
2022/07/26 02:27:19;;;;;;;1.70;0.90;;;23.30;51.10;;;;;;5012346;28;20058;-75
2022/07/26 02:29:45;;;;;;;8.10;1.30;;;23.20;50.40;;;;;;5010945;28;20018;-75
2022/07/26 02:32:11;;;;;;;4.95;1.10;;;23.20;50.60;;;;;;5012044;28;20022;-75
2022/07/26 02:34:37;;;;;;;3.17;1.30;;;23.20;50.70;;;;;;5012127;28;20037;-75
2022/07/26 02:37:03;;;;;;;3.22;1.35;;;23.20;50.80;;;;;;5012045;28;20022;-75
2022/07/26 02:39:28;;;;;;;4.35;1.00;;;23.10;51.00;;;;;;5011991;28;20034;-75
2022/07/26 02:41:58;;;;;;;3.53;1.10;;;23.00;51.40;;;;;;5011777;28;20065;-75
2022/07/26 02:44:25;;;;;;;4.47;1.13;;;23.00;51.60;;;;;;5011963;28;20490;-75
2022/07/26 02:46:51;;;;;;;2.53;1.00;;;23.00;51.70;;;;;;5011750;28;20080;-75
2022/07/26 02:49:17;;;;;;;2.72;1.13;;;23.00;52.00;;;;;;5012093;28;20362;-75
2022/07/26 02:51:43;;;;;;;5.18;1.20;;;23.00;52.00;;;;;;5011732;28;20030;-75
2022/07/26 02:54:09;;;;;;;2.78;1.08;;;22.90;52.20;;;;;;5011859;28;20106;-75
2022/07/26 02:56:34;;;;;;;4.05;1.30;;;22.80;52.70;;;;;;5011661;28;20514;-75
2022/07/26 02:59:00;;;;;;;2.00;0.93;;;22.80;52.90;;;;;;5010746;28;20052;-75
2022/07/26 03:01:25;;;;;;;2.42;0.93;;;22.70;53.00;;;;;;5011497;28;20033;-75
2022/07/26 03:03:51;;;;;;;3.95;1.10;;;22.70;53.30;;;;;;5011619;28;20033;-75
2022/07/26 03:06:17;;;;;;;3.30;0.77;;;22.70;53.30;;;;;;5011468;28;20064;-75
2022/07/26 03:08:43;;;;;;;0.80;0.80;;;22.70;53.40;;;;;;5011580;28;20018;-75
2022/07/26 03:11:09;;;;;;;1.60;1.08;;;22.60;53.50;;;;;;5011552;28;20033;-75
2022/07/26 03:13:34;;;;;;;2.78;1.00;;;22.60;53.70;;;;;;5011535;28;20030;-74
2022/07/26 03:16:00;;;;;;;4.72;1.38;;;22.70;53.80;;;;;;5011336;28;20042;-75
2022/07/26 03:18:25;;;;;;;1.50;0.90;;;22.70;53.70;;;;;;5011414;28;20033;-75
2022/07/26 03:20:51;;;;;;;2.97;1.35;;;22.60;53.50;;;;;;5011238;28;20034;-75
2022/07/26 03:23:17;;;;;;;5.97;1.20;;;22.60;53.50;;;;;;5011327;28;20037;-75
2022/07/26 03:25:42;;;;;;;1.60;1.02;;;22.60;53.60;;;;;;5011243;28;20033;-75
2022/07/26 03:28:08;;;;;;;3.63;1.00;;;22.50;53.60;;;;;;5011328;28;20026;-75
2022/07/26 03:30:34;;;;;;;4.22;1.10;;;22.50;54.00;;;;;;5011298;28;20068;-75
2022/07/26 03:33:00;;;;;;;5.05;1.20;;;22.40;54.00;;;;;;5011276;28;20379;-75
2022/07/26 03:35:25;;;;;;;2.85;1.10;;;22.40;54.30;;;;;;5011097;28;20374;-75
2022/07/26 03:37:51;;;;;;;1.85;1.00;;;22.30;54.70;;;;;;5011122;28;20026;-75
2022/07/26 03:40:17;;;;;;;4.95;1.20;;;22.30;54.80;;;;;;5011481;28;20079;-75
2022/07/26 03:42:47;;;;;;;1.13;0.95;;;22.30;54.70;;;;;;5011010;28;20474;-75
2022/07/26 03:45:14;;;;;;;2.42;1.10;;;22.30;54.80;;;;;;5009608;28;20052;-76
2022/07/26 03:47:39;;;;;;;1.70;1.23;;;22.30;55.00;;;;;;5010926;28;20026;-75
2022/07/26 03:50:06;;;;;;;4.85;1.17;;;22.30;54.90;;;;;;5010839;28;20026;-76
2022/07/26 03:52:32;;;;;;;3.45;0.80;;;22.30;55.00;;;;;;5009012;28;20482;-75
2022/07/26 03:54:57;;;;;;;4.43;1.30;;;22.40;54.90;;;;;;5010731;28;20030;-75
2022/07/26 03:57:23;;;;;;;5.13;1.20;;;22.40;54.80;;;;;;5010498;28;20046;-75
2022/07/26 03:59:49;;;;;;;1.63;1.15;;;22.40;55.10;;;;;;5010587;28;20030;-75
2022/07/26 04:02:14;;;;;;;2.47;1.10;;;22.40;55.00;;;;;;5010547;28;20037;-75
2022/07/26 04:04:40;;;;;;;1.75;1.10;;;22.20;55.60;;;;;;5010526;28;20018;-75
2022/07/26 04:07:06;;;;;;;4.50;1.10;;;22.10;56.00;;;;;;5010832;28;20030;-75
2022/07/26 04:09:31;;;;;;;4.07;1.70;;;22.00;56.50;;;;;;5010958;28;20037;-75
2022/07/26 04:11:57;;;;;;;1.20;1.10;;;21.90;56.70;;;;;;5010291;28;20490;-75
2022/07/26 04:14:22;;;;;;;6.45;1.58;;;21.90;57.00;;;;;;5010644;28;20026;-75
2022/07/26 04:16:48;;;;;;;4.03;1.30;;;21.90;56.90;;;;;;5010893;28;20030;-75
2022/07/26 04:19:13;;;;;;;1.77;1.10;;;21.90;57.10;;;;;;5010688;28;20534;-75
2022/07/26 04:21:39;;;;;;;1.80;1.30;;;21.70;58.10;;;;;;5010426;28;20481;-75
2022/07/26 04:24:05;;;;;;;2.78;1.45;;;21.50;58.40;;;;;;5010369;28;20014;-74
2022/07/26 04:26:31;;;;;;;1.60;0.98;;;21.20;59.70;;;;;;5010517;28;20104;-74
2022/07/26 04:28:56;;;;;;;3.63;1.05;;;21.20;59.70;;;;;;5010330;28;20121;-75
2022/07/26 04:31:22;;;;;;;1.20;0.90;;;21.10;60.20;;;;;;5010471;28;20026;-74
2022/07/26 04:33:48;;;;;;;3.78;1.30;;;21.20;60.10;;;;;;5009976;28;20534;-74
2022/07/26 04:36:13;;;;;;;4.07;1.30;;;21.40;59.70;;;;;;5010502;28;20513;-75
2022/07/26 04:38:40;;;;;;;4.15;1.50;;;21.50;59.10;;;;;;5010346;28;20025;-73
2022/07/26 04:41:05;;;;;;;4.45;1.58;;;21.70;58.40;;;;;;5008847;28;20390;-74
2022/07/26 04:43:31;;;;;;;2.55;1.35;;;21.80;58.10;;;;;;5010141;28;20018;-75
2022/07/26 04:45:57;;;;;;;2.33;1.33;;;21.90;57.90;;;;;;5021389;28;20448;-75
2022/07/26 04:48:23;;;;;;;1.88;1.33;;;22.00;56.90;;;;;;5015743;28;20029;-75
2022/07/26 04:50:48;;;;;;;3.85;1.20;;;21.90;57.50;;;;;;5010208;28;20022;-75
2022/07/26 04:53:14;;;;;;;1.35;0.98;;;21.70;57.80;;;;;;5010115;28;20042;-75
2022/07/26 04:55:40;;;;;;;1.33;1.00;;;21.60;59.00;;;;;;5010436;28;20489;-74
2022/07/26 04:58:07;;;;;;;1.88;1.10;;;21.30;59.20;;;;;;5009843;28;20058;-73
2022/07/26 05:00:33;;;;;;;1.80;1.13;;;21.30;59.80;;;;;;5010605;28;20026;-73
2022/07/26 05:03:00;;;;;;;1.45;1.13;;;21.30;60.10;;;;;;5009988;28;20124;-73
2022/07/26 05:05:28;;;;;;;3.95;1.55;;;21.20;60.40;;;;;;5009892;28;20082;-73
2022/07/26 05:07:55;;;;;;;2.67;1.60;;;21.30;60.10;;;;;;5009933;28;20057;-73
2022/07/26 05:10:27;;;;;;;3.00;1.60;;;21.40;59.70;;;;;;5010283;28;20023;-74
2022/07/26 05:12:53;;;;;;;4.97;1.70;;;21.30;61.20;;;;;;5013652;28;20069;-71
2022/07/26 05:15:18;;;;;;;3.20;1.33;;;21.20;60.90;;;;;;5011389;28;20026;-75
2022/07/26 05:17:44;;;;;;;3.45;1.42;;;20.90;62.00;;;;;;5023861;28;20045;-76
2022/07/26 05:20:11;;;;;;;2.60;1.33;;;20.70;62.90;;;;;;5028049;28;20025;-73
2022/07/26 05:22:37;;;;;;;2.83;1.60;;;20.40;64.30;;;;;;5027592;28;20658;-75
2022/07/26 05:25:03;;;;;;;4.72;1.98;;;20.50;64.40;;;;;;5028982;28;20029;-75
2022/07/26 05:27:29;;;;;;;3.03;1.60;;;20.70;64.70;;;;;;5032797;28;20014;-76
2022/07/26 05:29:54;;;;;;;2.17;1.70;;;21.00;62.80;;;;;;5030268;28;20028;-73
2022/07/26 05:32:21;;;;;;;2.15;1.40;;;21.10;62.10;;;;;;5032880;28;20033;-76
2022/07/26 05:34:47;;;;;;;6.05;1.45;;;21.20;61.80;;;;;;5035449;28;20018;-75
2022/07/26 05:37:12;;;;;;;1.52;1.35;;;20.80;63.00;;;;;;5033686;28;20218;-75
2022/07/26 05:39:38;;;;;;;3.20;2.00;;;20.50;64.40;;;;;;5027728;28;20387;-76
2022/07/26 05:42:03;;;;;;;3.50;2.53;;;20.50;64.80;;;;;;5014165;28;20072;-75
2022/07/26 05:44:29;;;;;;;2.85;1.70;;;20.70;64.00;;;;;;5013607;28;20053;-76
2022/07/26 05:46:54;;;;;;;2.72;1.35;;;20.80;63.50;;;;;;5014309;28;20479;-77
2022/07/26 05:49:20;;;;;;;4.63;2.05;;;20.70;64.10;;;;;;5013683;28;20026;-76
2022/07/26 05:51:45;;;;;;;3.63;1.50;;;20.90;63.60;;;;;;5011774;28;20053;-73
2022/07/26 05:54:11;;;;;;;2.70;1.70;;;21.00;63.10;;;;;;5012832;28;20067;-76
2022/07/26 05:56:37;;;;;;;11.43;3.33;;;21.20;62.20;;;;;;5012423;28;20049;-75
2022/07/26 05:59:02;;;;;;;10.93;3.03;;;21.30;62.20;;;;;;5011514;28;20030;-75
2022/07/26 06:01:31;;;;;;;3.60;1.70;;;21.30;61.60;;;;;;5012394;28;20030;-78
2022/07/26 06:03:57;;;;;;;37.95;5.55;;;21.50;61.10;;;;;;5012793;28;20050;-76
2022/07/26 06:06:23;;;;;;;5.82;2.35;;;21.10;62.20;;;;;;5012263;28;20030;-76
2022/07/26 06:08:48;;;;;;;5.05;2.00;;;21.30;61.50;;;;;;5011730;28;20367;-76
2022/07/26 06:11:14;;;;;;;5.65;1.80;;;21.40;61.10;;;;;;5012283;28;20534;-77
2022/07/26 06:13:39;;;;;;;4.07;1.80;;;21.30;61.10;;;;;;5011695;28;20492;-76
2022/07/26 06:16:05;;;;;;;5.05;1.63;;;21.40;60.80;;;;;;5011894;28;20118;-76
2022/07/26 06:18:30;;;;;;;2.65;1.50;;;21.50;60.80;;;;;;5011944;28;20496;-76
2022/07/26 06:20:56;;;;;;;4.60;1.75;;;21.50;60.20;;;;;;5011769;28;20110;-76
2022/07/26 06:23:23;;;;;;;6.57;1.70;;;21.20;61.80;;;;;;5011652;28;20216;-77
2022/07/26 06:25:48;;;;;;;6.53;1.40;;;21.30;61.40;;;;;;5010436;28;20057;-74
2022/07/26 06:28:14;;;;;;;3.83;1.52;;;21.10;61.90;;;;;;5011777;28;20025;-75
2022/07/26 06:30:42;;;;;;;2.92;1.45;;;21.10;61.50;;;;;;5011455;28;20034;-79
2022/07/26 06:33:08;;;;;;;7.90;1.88;;;20.90;62.50;;;;;;5011338;28;20105;-79
2022/07/26 06:35:35;;;;;;;3.65;1.45;;;21.20;61.80;;;;;;5011600;28;20029;-79
2022/07/26 06:38:01;;;;;;;4.95;1.75;;;21.40;60.50;;;;;;5011533;28;20033;-78
2022/07/26 06:40:27;;;;;;;3.30;1.30;;;21.70;59.80;;;;;;5011495;28;20049;-79
2022/07/26 06:42:52;;;;;;;5.18;1.63;;;21.80;59.20;;;;;;5011881;28;20030;-79
2022/07/26 06:45:18;;;;;;;5.75;1.83;;;22.00;58.20;;;;;;5010678;28;20466;-78
2022/07/26 06:47:44;;;;;;;4.45;1.77;;;22.20;58.50;;;;;;5010236;28;20034;-79
2022/07/26 06:50:10;;;;;;;2.40;1.65;;;22.30;57.20;;;;;;5010618;28;20025;-77
2022/07/26 06:52:35;;;;;;;6.85;2.33;;;22.40;56.40;;;;;;5011314;28;20034;-77
2022/07/26 06:55:02;;;;;;;2.38;1.60;;;22.30;57.00;;;;;;5011376;28;20091;-77
2022/07/26 06:57:28;;;;;;;3.85;1.63;;;22.10;57.30;;;;;;5011138;28;20054;-77
2022/07/26 06:59:54;;;;;;;4.70;1.90;;;22.30;57.20;;;;;;5011352;28;20440;-77
2022/07/26 07:02:20;;;;;;;6.93;2.17;;;22.40;56.60;;;;;;5011022;28;20156;-77
2022/07/26 07:04:45;;;;;;;3.35;1.92;;;22.30;57.00;;;;;;5011218;28;20026;-77
2022/07/26 07:07:11;;;;;;;6.20;2.03;;;22.30;57.00;;;;;;5011206;28;20041;-79
2022/07/26 07:09:38;;;;;;;10.90;1.80;;;22.10;57.90;;;;;;5011039;28;20482;-78
2022/07/26 07:12:05;;;;;;;3.50;1.60;;;21.90;58.10;;;;;;5010077;28;20508;-77
2022/07/26 07:14:31;;;;;;;5.70;1.90;;;21.60;58.70;;;;;;5010426;28;20026;-78
2022/07/26 07:16:57;;;;;;;4.65;2.08;;;21.70;58.30;;;;;;5011133;28;20034;-78
2022/07/26 07:19:23;;;;;;;6.43;1.77;;;21.90;58.30;;;;;;5011076;28;20022;-77
2022/07/26 07:21:48;;;;;;;3.00;2.17;;;22.00;58.40;;;;;;5010915;28;20030;-77
2022/07/26 07:24:14;;;;;;;3.20;1.88;;;22.00;58.80;;;;;;5009935;28;20033;-76
2022/07/26 07:26:41;;;;;;;4.00;1.70;;;22.00;58.00;;;;;;5011007;28;20037;-77
2022/07/26 07:29:11;;;;;;;3.72;1.70;;;22.10;57.10;;;;;;5010945;28;20085;-78
2022/07/26 07:31:37;;;;;;;6.57;2.30;;;22.30;56.90;;;;;;5010513;28;20129;-77
2022/07/26 07:34:03;;;;;;;6.32;2.00;;;22.30;56.80;;;;;;5010735;28;20053;-77
2022/07/26 07:36:28;;;;;;;5.88;1.65;;;22.10;57.30;;;;;;5010760;28;20097;-77
2022/07/26 07:38:54;;;;;;;2.92;1.50;;;21.80;57.40;;;;;;5010943;28;20021;-77
2022/07/26 07:41:19;;;;;;;8.60;2.10;;;22.10;57.70;;;;;;5010641;28;20026;-78
2022/07/26 07:43:45;;;;;;;6.60;2.00;;;22.40;54.40;;;;;;5010544;28;20036;-79
2022/07/26 07:46:11;;;;;;;6.28;1.70;;;22.30;54.30;;;;;;5010092;28;20028;-77
2022/07/26 07:48:39;;;;;;;7.25;2.00;;;22.00;53.90;;;;;;5010824;28;20034;-76
2022/07/26 07:51:08;;;;;;;7.88;2.28;;;21.90;54.20;;;;;;5010736;28;20363;-79
2022/07/26 07:53:34;;;;;;;8.13;1.60;;;21.70;54.90;;;;;;5011576;28;20026;-78
2022/07/26 07:55:59;;;;;;;4.60;1.55;;;21.80;54.10;;;;;;5010868;28;20360;-78
2022/07/26 07:58:25;;;;;;;5.97;1.50;;;22.20;53.10;;;;;;5010414;28;20107;-77
2022/07/26 08:00:51;;;;;;;8.32;1.90;;;22.50;52.90;;;;;;5010500;28;20143;-78
2022/07/26 08:03:17;;;;;;;5.18;1.55;;;22.70;51.50;;;;;;5010463;28;20116;-78
2022/07/26 08:05:43;;;;;;;4.03;1.42;;;23.00;50.30;;;;;;5010498;28;20069;-77
2022/07/26 08:08:08;;;;;;;4.78;1.27;;;23.10;50.20;;;;;;5009995;28;20022;-78
2022/07/26 08:10:34;;;;;;;2.83;1.60;;;23.20;47.40;;;;;;5010099;28;20038;-76
2022/07/26 08:13:00;;;;;;;5.60;1.65;;;23.10;48.60;;;;;;5010433;28;20152;-77
2022/07/26 08:15:26;;;;;;;5.05;1.63;;;23.10;47.60;;;;;;5009777;28;20105;-78
2022/07/26 08:17:52;;;;;;;5.50;1.60;;;23.30;47.10;;;;;;5009195;28;20442;-78
2022/07/26 08:20:18;;;;;;;4.20;1.23;;;23.50;46.80;;;;;;5009401;28;20640;-78
2022/07/26 08:22:44;;;;;;;6.28;1.77;;;23.60;45.20;;;;;;5010474;28;20045;-78
2022/07/26 08:25:10;;;;;;;4.30;1.42;;;23.30;46.70;;;;;;5009796;28;20022;-80
2022/07/26 08:27:35;;;;;;;3.67;1.50;;;23.10;47.20;;;;;;5009949;28;20470;-79
2022/07/26 08:30:02;;;;;;;5.25;2.05;;;23.20;46.80;;;;;;5010008;28;20037;-78
2022/07/26 08:32:27;;;;;;;5.35;1.60;;;23.50;46.30;;;;;;5009903;28;20099;-78
2022/07/26 08:34:53;;;;;;;2.28;1.30;;;23.80;44.80;;;;;;5009787;28;20413;-79
2022/07/26 08:37:18;;;;;;;6.30;1.42;;;23.70;43.40;;;;;;5009794;28;20075;-77
2022/07/26 08:39:46;;;;;;;5.93;1.70;;;23.70;43.50;;;;;;5010008;28;20030;-74
2022/07/26 08:42:16;;;;;;;4.10;1.23;;;23.60;42.20;;;;;;5009580;28;20034;-75
2022/07/26 08:44:43;;;;;;;7.85;1.52;;;23.30;43.90;;;;;;5009807;28;20416;-75
2022/07/26 08:47:11;;;;;;;3.70;1.42;;;23.20;44.50;;;;;;5009694;28;20030;-75
2022/07/26 08:49:36;;;;;;;5.70;1.27;;;23.10;41.90;;;;;;5009645;28;20408;-75
2022/07/26 08:52:02;;;;;;;4.13;1.40;;;23.30;42.10;;;;;;5009416;28;20086;-75
2022/07/26 08:54:28;;;;;;;3.13;1.77;;;23.60;41.80;;;;;;5009735;28;20109;-75
2022/07/26 08:56:54;;;;;;;8.38;1.67;;;23.80;41.80;;;;;;5009555;28;20085;-75
2022/07/26 08:59:19;;;;;;;3.45;1.13;;;23.80;40.40;;;;;;5012918;28;20155;-75
2022/07/26 09:01:59;;;;;;;4.57;1.60;;;23.20;41.40;;;;;;5011945;28;20494;-76
2022/07/26 09:04:31;;;;;;;5.32;1.42;;;23.30;42.50;;;;;;5012068;28;20505;-75
2022/07/26 09:07:10;;;;;;;6.28;1.42;;;23.80;40.70;;;;;;5011943;28;20086;-75
2022/07/26 09:09:38;;;;;;;7.00;1.02;;;23.80;39.70;;;;;;5011780;28;20443;-73
2022/07/26 09:12:32;;;;;;;5.97;1.30;;;23.70;40.00;;;;;;5011359;28;20030;-75
2022/07/26 09:14:59;;;;;;;5.72;1.17;;;23.80;39.10;;;;;;5013256;28;20125;-75
2022/07/26 09:17:38;;;;;;;5.55;1.13;;;24.00;39.10;;;;;;5011726;28;20033;-79
2022/07/26 09:20:09;;;;;;;7.63;1.45;;;24.20;38.20;;;;;;5012036;28;20029;-75
2022/07/26 09:22:37;;;;;;;6.18;1.63;;;24.30;38.00;;;;;;5012059;28;20022;-74
2022/07/26 09:25:10;;;;;;;4.55;1.30;;;24.20;38.40;;;;;;5011982;28;20018;-75
2022/07/26 09:27:35;;;;;;;5.00;1.48;;;24.20;37.20;;;;;;5011923;28;20030;-76
2022/07/26 09:30:08;;;;;;;3.88;0.93;;;24.10;37.20;;;;;;5011571;28;20022;-75
2022/07/26 09:32:35;;;;;;;6.53;1.60;;;24.10;36.50;;;;;;5011633;28;20041;-77
2022/07/26 09:35:17;;;;;;;4.40;1.20;;;23.90;36.50;;;;;;5012360;28;20018;-75
2022/07/26 09:37:45;;;;;;;3.47;1.60;;;23.80;36.70;;;;;;5011855;28;20162;-76
2022/07/26 09:40:13;;;;;;;6.43;1.83;;;23.70;37.20;;;;;;5011565;28;20113;-75
2022/07/26 09:42:56;;;;;;;1.30;0.90;;;23.70;36.80;;;;;;5011494;28;20452;-75
2022/07/26 09:45:21;;;;;;;4.18;1.23;;;23.80;37.20;;;;;;5011194;28;20359;-76
2022/07/26 09:47:47;;;;;;;3.17;1.15;;;23.80;37.10;;;;;;5011236;28;20055;-76
2022/07/26 09:50:17;;;;;;;3.45;0.98;;;23.80;37.30;;;;;;5011048;28;20030;-76
2022/07/26 09:53:02;;;;;;;5.57;0.95;;;24.00;37.20;;;;;;5010822;28;20142;-77
2022/07/26 09:55:29;;;;;;;4.22;1.17;;;24.40;36.90;;;;;;5010835;28;20524;-76
2022/07/26 09:57:56;;;;;;;1.40;0.93;;;24.70;36.70;;;;;;5010622;28;20054;-76
2022/07/26 10:00:24;;;;;;;3.05;0.70;;;24.70;36.60;;;;;;5010518;28;20159;-76
2022/07/26 10:02:51;;;;;;;4.38;1.00;;;24.80;36.80;;;;;;5010717;28;20026;-77
2022/07/26 10:05:25;;;;;;;2.47;0.75;;;24.90;36.90;;;;;;5010704;28;20423;-77
2022/07/26 10:07:52;;;;;;;4.90;1.20;;;24.80;36.40;;;;;;5009778;28;20436;-76
2022/07/26 10:10:25;;;;;;;5.82;1.20;;;25.00;36.60;;;;;;5009854;28;20379;-74
2022/07/26 10:12:54;;;;;;;4.55;1.00;;;24.80;36.30;;;;;;5010172;28;20034;-77
2022/07/26 10:15:35;;;;;;;6.40;1.10;;;24.30;36.20;;;;;;5010343;28;20018;-75
2022/07/26 10:18:01;;;;;;;3.22;1.30;;;24.00;37.10;;;;;;5010152;28;20034;-75
2022/07/26 10:20:41;;;;;;;4.15;1.40;;;24.00;37.20;;;;;;5010073;28;20018;-75
2022/07/26 10:23:32;;;;;;;8.00;1.30;;;24.30;38.30;;;;;;5010038;28;20030;-75
2022/07/26 10:25:58;;;;;;;2.60;1.50;;;24.80;37.60;;;;;;5010193;28;20034;-76
2022/07/26 10:28:26;;;;;;;5.07;1.27;;;24.80;36.60;;;;;;5010546;28;20029;-75
2022/07/26 10:31:11;;;;;;;5.78;1.23;;;24.80;36.50;;;;;;5011757;28;20029;-75
2022/07/26 10:33:43;;;;;;;3.53;1.10;;;25.00;36.50;;;;;;5010102;28;20122;-76
2022/07/26 10:36:26;;;;;;;4.05;1.17;;;24.90;35.80;;;;;;5010467;28;20139;-76
2022/07/26 10:39:04;;;;;;;5.40;1.30;;;25.20;35.40;;;;;;5010399;28;20493;-75
2022/07/26 10:41:46;;;;;;;5.25;1.92;;;25.50;35.00;;;;;;5010633;28;20025;-75
2022/07/26 10:44:25;;;;;;;9.07;1.33;;;25.40;33.50;;;;;;5010463;28;20025;-76
2022/07/26 10:46:57;;;;;;;4.15;1.30;;;25.10;34.50;;;;;;5010311;28;20026;-75
2022/07/26 10:49:29;;;;;;;5.07;1.10;;;25.30;34.50;;;;;;5010514;28;20045;-77
2022/07/26 10:52:12;;;;;;;7.07;2.08;;;25.50;34.80;;;;;;4994043;28;20041;-75
2022/07/26 10:54:56;;;;;;;4.38;1.20;;;25.50;34.70;;;;;;5010413;28;20078;-76
2022/07/26 10:57:39;;;;;;;4.50;1.23;;;25.70;33.80;;;;;;5009427;28;20195;-77
2022/07/26 11:00:21;;;;;;;1.20;0.80;;;25.40;34.10;;;;;;5009850;28;20037;-77
2022/07/26 11:02:55;;;;;;;2.67;1.00;;;25.10;32.70;;;;;;5011364;28;20076;-76
2022/07/26 11:05:28;;;;;;;3.85;0.90;;;25.00;33.00;;;;;;4993851;28;20499;-76
2022/07/26 11:08:00;;;;;;;2.80;0.90;;;25.10;33.40;;;;;;5010132;28;20079;-77
2022/07/26 11:10:30;;;;;;;1.17;0.88;;;25.40;33.10;;;;;;5009882;28;20026;-77
2022/07/26 11:13:18;;;;;;;3.45;1.20;;;25.90;32.20;;;;;;5009698;28;20558;-76
2022/07/26 11:15:53;;;;;;;2.60;0.90;;;26.30;30.90;;;;;;5009902;28;20129;-77
2022/07/26 11:18:31;;;;;;;5.68;1.35;;;26.80;32.40;;;;;;5009621;28;20475;-77
2022/07/26 11:21:08;;;;;;;3.53;1.08;;;26.80;31.70;;;;;;5008724;28;20026;-75
2022/07/26 11:23:35;;;;;;;4.03;1.10;;;26.60;32.20;;;;;;5009356;28;20025;-75
2022/07/26 11:26:12;;;;;;;5.07;0.98;;;26.60;31.70;;;;;;5009634;28;20033;-75
2022/07/26 11:29:00;;;;;;;2.92;0.75;;;26.50;31.90;;;;;;5009494;28;20030;-75
2022/07/26 11:31:39;;;;;;;2.67;0.90;;;26.50;32.20;;;;;;5009680;28;20071;-75
2022/07/26 11:34:06;;;;;;;3.65;0.77;;;26.80;31.10;;;;;;5009937;28;20378;-75
2022/07/26 11:36:37;;;;;;;1.20;0.60;;;26.80;30.60;;;;;;5009956;28;20033;-74
2022/07/26 11:39:05;;;;;;;3.45;0.90;;;27.00;30.10;;;;;;5009962;28;20075;-76
2022/07/26 11:41:31;;;;;;;1.00;0.80;;;27.10;30.00;;;;;;5009768;28;20168;-74
2022/07/26 11:43:58;;;;;;;4.75;0.80;;;27.10;29.80;;;;;;5009685;28;20063;-75
2022/07/26 11:46:35;;;;;;;2.05;0.70;;;27.10;28.10;;;;;;5009002;28;20029;-74
2022/07/26 11:49:01;;;;;;;2.25;1.08;;;26.40;27.90;;;;;;5009564;28;20113;-74
2022/07/26 11:51:27;;;;;;;2.10;0.90;;;26.10;28.70;;;;;;5009472;28;20191;-75
2022/07/26 11:53:58;;;;;;;1.65;0.82;;;26.20;29.00;;;;;;5009562;28;20484;-76
2022/07/26 11:56:25;;;;;;;1.95;0.77;;;26.20;29.30;;;;;;5010510;28;20070;-75
2022/07/26 11:58:53;;;;;;;3.28;0.95;;;26.30;30.70;;;;;;5009580;28;20121;-74
2022/07/26 12:01:21;;;;;;;2.00;1.00;;;26.50;32.00;;;;;;5009394;28;20026;-75
2022/07/26 12:03:49;;;;;;;4.03;1.23;;;26.80;31.70;;;;;;5009254;28;20022;-74
2022/07/26 12:06:17;;;;;;;6.15;1.02;;;26.60;30.50;;;;;;5009083;28;20037;-74
2022/07/26 12:08:44;;;;;;;4.00;1.10;;;25.80;31.10;;;;;;4992823;28;20026;-75
2022/07/26 12:11:11;;;;;;;2.70;1.30;;;25.50;31.20;;;;;;5009872;28;20040;-74
2022/07/26 12:13:54;;;;;;;1.33;0.60;;;25.70;30.90;;;;;;5008823;28;20478;-74
2022/07/26 12:16:43;;;;;;;1.88;0.80;;;26.20;29.10;;;;;;5009136;28;20022;-74
2022/07/26 12:19:17;;;;;;;3.80;0.60;;;26.60;27.70;;;;;;5011834;28;20025;-74
2022/07/26 12:21:56;;;;;;;1.45;0.80;;;26.40;27.00;;;;;;5009334;28;20383;-74
2022/07/26 12:24:43;;;;;;;5.78;1.00;;;27.20;28.70;;;;;;5009531;28;20022;-75
2022/07/26 12:27:08;;;;;;;2.97;0.70;;;27.60;28.30;;;;;;5009086;28;20112;-74
2022/07/26 12:29:37;;;;;;;3.85;1.02;;;27.30;28.20;;;;;;5009189;28;20482;-74
2022/07/26 12:32:09;;;;;;;3.35;0.90;;;27.00;28.40;;;;;;5009982;28;20065;-76
2022/07/26 12:34:36;;;;;;;0.88;0.52;;;26.90;28.00;;;;;;5008939;28;20026;-77
2022/07/26 12:37:15;;;;;;;1.83;0.90;;;27.20;27.50;;;;;;5009843;28;20099;-75
2022/07/26 12:39:42;;;;;;;6.95;0.57;;;27.50;26.80;;;;;;5009321;28;20026;-73
2022/07/26 12:42:32;;;;;;;1.27;0.80;;;27.50;26.90;;;;;;5009061;28;20117;-74
2022/07/26 12:44:58;;;;;;;2.17;1.00;;;27.70;26.30;;;;;;5008913;28;20022;-74
2022/07/26 12:47:24;;;;;;;2.58;0.80;;;27.60;26.10;;;;;;5009136;28;20022;-74
2022/07/26 12:49:51;;;;;;;3.20;0.80;;;27.60;26.60;;;;;;5008942;28;20078;-74